createdAt,value
2017-10-18T00:00:08.401Z,22.50
2017-10-18T00:00:42.351Z,23.85
2017-10-18T00:01:16.219Z,23.25
2017-10-18T00:01:50.100Z,24.70
2017-10-18T00:02:24.009Z,23.35
2017-10-18T00:02:57.884Z,24.12
2017-10-18T00:03:31.788Z,24.30
2017-10-18T00:04:05.667Z,22.23
2017-10-18T00:04:39.543Z,24.55
2017-10-18T00:05:13.437Z,23.42
2017-10-18T00:05:47.331Z,23.17
2017-10-18T00:06:23.487Z,23.50
2017-10-18T00:06:57.359Z,23.42
2017-10-18T00:07:31.223Z,21.95
2017-10-18T00:08:05.105Z,22.05
2017-10-18T00:08:38.984Z,22.83
2017-10-18T00:09:12.863Z,21.40
2017-10-18T00:09:46.728Z,21.15
2017-10-18T00:10:20.609Z,21.65
2017-10-18T00:10:54.503Z,21.35
2017-10-18T00:11:28.368Z,21.23
2017-10-18T00:12:02.248Z,21.62
2017-10-18T00:12:36.114Z,21.45
2017-10-18T00:13:09.978Z,21.85
2017-10-18T00:13:43.851Z,22.55
2017-10-18T00:14:17.725Z,21.42
2017-10-18T00:14:51.629Z,22.70
2017-10-18T00:15:25.497Z,22.92
2017-10-18T00:15:59.372Z,22.13
2017-10-18T00:16:33.241Z,23.10
2017-10-18T00:17:07.121Z,21.75
2017-10-18T00:17:40.993Z,21.70
2017-10-18T00:18:14.857Z,22.35
2017-10-18T00:18:48.727Z,21.48
2017-10-18T00:19:22.596Z,23.17
2017-10-18T00:19:56.468Z,21.80
2017-10-18T00:20:30.340Z,22.75
2017-10-18T00:21:04.220Z,22.58
2017-10-18T00:21:38.079Z,21.73
2017-10-18T00:22:11.939Z,22.08
2017-10-18T00:22:45.836Z,22.92
2017-10-18T00:23:19.729Z,22.67
2017-10-18T00:23:53.632Z,22.25
2017-10-18T00:24:27.500Z,21.80
2017-10-18T00:25:01.392Z,21.77
2017-10-18T00:25:35.273Z,22.27
2017-10-18T00:26:09.156Z,22.05
2017-10-18T00:26:43.027Z,22.42
2017-10-18T00:27:16.906Z,22.35
2017-10-18T00:27:50.796Z,22.62
2017-10-18T00:28:24.664Z,22.05
2017-10-18T00:28:58.523Z,21.37
2017-10-18T00:29:32.405Z,21.58
2017-10-18T00:30:06.271Z,22.08
2017-10-18T00:30:40.137Z,23.23
2017-10-18T00:31:14.029Z,21.25
2017-10-18T00:31:47.924Z,21.85
2017-10-18T00:32:21.800Z,21.80
2017-10-18T00:32:55.676Z,21.60
2017-10-18T00:33:29.548Z,22.13
2017-10-18T00:34:03.426Z,22.25
2017-10-18T00:34:37.311Z,21.75
2017-10-18T00:35:11.188Z,22.85
2017-10-18T00:35:45.061Z,22.67
2017-10-18T00:36:18.946Z,21.15
2017-10-18T00:36:52.812Z,21.45
2017-10-18T00:37:26.678Z,22.33
2017-10-18T00:38:00.550Z,22.20
2017-10-18T00:38:34.432Z,22.37
2017-10-18T00:39:08.307Z,21.45
2017-10-18T00:39:42.222Z,21.85
2017-10-18T00:40:16.103Z,21.05
2017-10-18T00:40:49.956Z,22.42
2017-10-18T00:41:23.834Z,21.45
2017-10-18T00:41:57.722Z,23.02
2017-10-18T00:42:31.612Z,20.40
2017-10-18T00:43:05.482Z,21.52
2017-10-18T00:43:39.353Z,22.37
2017-10-18T00:44:13.232Z,20.50
2017-10-18T00:44:47.093Z,22.33
2017-10-18T00:45:20.971Z,21.75
2017-10-18T00:45:54.841Z,20.48
2017-10-18T00:46:28.740Z,21.02
2017-10-18T00:47:02.607Z,21.25
2017-10-18T00:47:36.486Z,21.05
2017-10-18T00:48:10.349Z,21.45
2017-10-18T00:48:44.261Z,21.50
2017-10-18T00:49:18.116Z,21.70
2017-10-18T00:49:51.980Z,22.25
2017-10-18T00:50:25.854Z,21.15
2017-10-18T00:50:59.728Z,21.83
2017-10-18T00:51:33.735Z,21.60
2017-10-18T00:52:07.622Z,21.55
2017-10-18T00:52:41.500Z,21.33
2017-10-18T00:53:15.372Z,21.30
2017-10-18T00:53:49.249Z,20.20
2017-10-18T00:54:23.120Z,21.37
2017-10-18T00:54:56.991Z,20.02
2017-10-18T00:55:30.851Z,20.65
2017-10-18T00:56:04.728Z,21.58
2017-10-18T00:56:38.613Z,21.62
2017-10-18T00:57:12.502Z,22.23
2017-10-18T00:57:46.370Z,21.85
2017-10-18T00:58:20.250Z,22.62
2017-10-18T00:58:54.122Z,22.20
2017-10-18T00:59:28.009Z,21.25
2017-10-18T01:00:01.890Z,21.70
2017-10-18T01:00:35.767Z,21.80
2017-10-18T01:01:09.630Z,21.50
2017-10-18T01:01:43.533Z,21.75
2017-10-18T01:02:17.413Z,23.92
2017-10-18T01:02:51.281Z,23.20
2017-10-18T01:03:25.156Z,21.42
2017-10-18T01:03:59.030Z,23.30
2017-10-18T01:04:32.930Z,22.15
2017-10-18T01:05:06.801Z,22.90
2017-10-18T01:05:40.697Z,22.10
2017-10-18T01:06:14.571Z,22.25
2017-10-18T01:06:48.484Z,21.42
2017-10-18T01:07:22.366Z,21.75
2017-10-18T01:07:56.253Z,22.23
2017-10-18T01:08:30.117Z,21.50
2017-10-18T01:09:04.001Z,23.02
2017-10-18T01:09:37.896Z,21.45
2017-10-18T01:10:11.762Z,23.50
2017-10-18T01:10:45.651Z,22.40
2017-10-18T01:11:19.539Z,21.92
2017-10-18T01:11:53.439Z,22.40
2017-10-18T01:12:27.312Z,22.52
2017-10-18T01:13:01.245Z,21.85
2017-10-18T01:13:35.134Z,22.50
2017-10-18T01:14:09.000Z,21.80
2017-10-18T01:14:42.866Z,21.02
2017-10-18T01:15:16.743Z,22.45
2017-10-18T01:15:50.616Z,21.98
2017-10-18T01:16:24.464Z,22.52
2017-10-18T01:16:58.386Z,22.20
2017-10-18T01:17:32.269Z,22.02
2017-10-18T01:18:06.150Z,22.37
2017-10-18T01:18:40.025Z,22.75
2017-10-18T01:19:13.898Z,24.55
2017-10-18T01:19:47.765Z,22.85
2017-10-18T01:20:21.636Z,23.08
2017-10-18T01:20:55.520Z,22.92
2017-10-18T01:21:29.391Z,22.37
2017-10-18T01:22:03.271Z,24.58
2017-10-18T01:22:37.145Z,25.15
2017-10-18T01:23:11.026Z,22.92
2017-10-18T01:23:44.909Z,23.98
2017-10-18T01:24:18.797Z,22.37
2017-10-18T01:24:52.663Z,23.20
2017-10-18T01:25:26.533Z,23.55
2017-10-18T01:26:00.396Z,22.37
2017-10-18T01:26:34.270Z,24.20
2017-10-18T01:27:08.138Z,23.87
2017-10-18T01:27:42.037Z,23.38
2017-10-18T01:28:15.908Z,22.15
2017-10-18T01:28:49.771Z,22.60
2017-10-18T01:29:23.658Z,22.92
2017-10-18T01:29:57.554Z,23.10
2017-10-18T01:30:31.440Z,23.50
2017-10-18T01:31:05.299Z,22.13
2017-10-18T01:31:39.199Z,22.30
2017-10-18T01:32:13.086Z,23.55
2017-10-18T01:32:46.963Z,23.70
2017-10-18T01:33:20.843Z,23.52
2017-10-18T01:33:54.713Z,24.37
2017-10-18T01:34:28.601Z,23.67
2017-10-18T01:35:02.470Z,22.50
2017-10-18T01:35:36.346Z,22.62
2017-10-18T01:36:10.228Z,21.45
2017-10-18T01:36:44.093Z,21.48
2017-10-18T01:37:17.984Z,23.38
2017-10-18T01:37:51.844Z,23.80
2017-10-18T01:38:25.726Z,23.75
2017-10-18T01:38:59.605Z,24.70
2017-10-18T01:39:33.481Z,23.12
2017-10-18T01:40:07.865Z,23.52
2017-10-18T01:40:41.736Z,23.38
2017-10-18T01:41:15.599Z,23.75
2017-10-18T01:41:49.467Z,25.58
2017-10-18T01:42:23.355Z,21.98
2017-10-18T01:42:57.240Z,24.12
2017-10-18T01:43:31.110Z,23.30
2017-10-18T01:44:04.988Z,23.70
2017-10-18T01:44:38.858Z,25.62
2017-10-18T01:45:12.744Z,23.38
2017-10-18T01:45:46.627Z,23.65
2017-10-18T01:46:20.496Z,22.98
2017-10-18T01:46:54.367Z,23.25
2017-10-18T01:47:28.260Z,23.92
2017-10-18T01:48:02.147Z,23.08
2017-10-18T01:48:36.040Z,24.77
2017-10-18T01:49:09.923Z,23.77
2017-10-18T01:49:43.786Z,24.35
2017-10-18T01:50:17.643Z,24.77
2017-10-18T01:50:51.516Z,25.10
2017-10-18T01:51:25.387Z,25.33
2017-10-18T01:51:59.266Z,25.48
2017-10-18T01:52:33.171Z,24.90
2017-10-18T01:53:07.047Z,23.10
2017-10-18T01:53:40.929Z,22.23
2017-10-18T01:54:14.794Z,23.12
2017-10-18T01:54:49.018Z,25.30
2017-10-18T01:55:22.885Z,22.75
2017-10-18T01:55:56.791Z,23.87
2017-10-18T01:56:30.700Z,24.95
2017-10-18T01:57:04.591Z,24.33
2017-10-18T01:57:38.494Z,24.08
2017-10-18T01:58:12.386Z,23.40
2017-10-18T01:58:46.254Z,22.37
2017-10-18T01:59:20.138Z,23.65
2017-10-18T01:59:54.006Z,23.67
2017-10-18T02:00:27.923Z,23.10
2017-10-18T02:01:13.791Z,23.90
2017-10-18T02:01:51.607Z,23.77
2017-10-18T02:02:25.491Z,23.52
2017-10-18T02:02:59.710Z,23.60
2017-10-18T02:03:33.598Z,23.80
2017-10-18T02:04:07.482Z,22.17
2017-10-18T02:04:41.353Z,23.33
2017-10-18T02:05:15.225Z,23.42
2017-10-18T02:05:49.104Z,22.95
2017-10-18T02:06:22.982Z,23.00
2017-10-18T02:06:56.854Z,22.10
2017-10-18T02:07:30.715Z,25.25
2017-10-18T02:08:04.594Z,21.50
2017-10-18T02:08:38.461Z,23.38
2017-10-18T02:09:12.326Z,24.27
2017-10-18T02:09:46.198Z,25.08
2017-10-18T02:10:20.069Z,22.85
2017-10-18T02:10:53.965Z,24.27
2017-10-18T02:11:27.851Z,24.45
2017-10-18T02:12:01.731Z,24.58
2017-10-18T02:12:35.608Z,25.62
2017-10-18T02:13:09.518Z,24.70
2017-10-18T02:13:43.386Z,24.00
2017-10-18T02:14:17.255Z,23.52
2017-10-18T02:14:51.139Z,24.08
2017-10-18T02:15:25.025Z,24.15
2017-10-18T02:15:58.898Z,23.85
2017-10-18T02:16:32.771Z,24.87
2017-10-18T02:17:06.644Z,24.77
2017-10-18T02:17:40.533Z,24.12
2017-10-18T02:18:14.410Z,24.92
2017-10-18T02:18:48.291Z,25.10
2017-10-18T02:19:22.176Z,24.35
2017-10-18T02:19:56.052Z,27.17
2017-10-18T02:20:29.922Z,25.25
2017-10-18T02:21:03.791Z,23.90
2017-10-18T02:21:37.663Z,24.75
2017-10-18T02:22:11.535Z,24.12
2017-10-18T02:22:45.414Z,24.73
2017-10-18T02:23:19.300Z,23.55
2017-10-18T02:23:53.221Z,23.92
2017-10-18T02:24:27.089Z,25.25
2017-10-18T02:25:00.977Z,22.92
2017-10-18T02:25:34.889Z,24.00
2017-10-18T02:26:08.772Z,23.80
2017-10-18T02:26:42.648Z,25.10
2017-10-18T02:27:16.518Z,24.12
2017-10-18T02:27:50.391Z,22.17
2017-10-18T02:28:24.292Z,22.73
2017-10-18T02:28:58.164Z,22.35
2017-10-18T02:29:32.048Z,21.65
2017-10-18T02:30:05.934Z,22.42
2017-10-18T02:30:39.808Z,22.87
2017-10-18T02:31:13.694Z,22.95
2017-10-18T02:31:47.596Z,21.02
2017-10-18T02:32:21.479Z,21.33
2017-10-18T02:32:55.354Z,22.55
2017-10-18T02:33:29.238Z,21.48
2017-10-18T02:34:03.100Z,20.05
2017-10-18T02:34:36.984Z,20.65
2017-10-18T02:35:10.855Z,21.67
2017-10-18T02:35:44.743Z,22.50
2017-10-18T02:36:18.620Z,20.65
2017-10-18T02:36:52.529Z,21.42
2017-10-18T02:37:26.406Z,22.62
2017-10-18T02:38:00.284Z,21.95
2017-10-18T02:38:34.185Z,21.87
2017-10-18T02:39:08.077Z,23.38
2017-10-18T02:39:41.949Z,24.83
2017-10-18T02:40:15.844Z,23.12
2017-10-18T02:40:49.716Z,21.67
2017-10-18T02:41:23.608Z,20.75
2017-10-18T02:41:57.491Z,21.37
2017-10-18T02:42:31.357Z,22.23
2017-10-18T02:43:05.236Z,22.20
2017-10-18T02:43:39.160Z,23.45
2017-10-18T02:44:13.040Z,22.02
2017-10-18T02:44:46.925Z,22.77
2017-10-18T02:45:20.824Z,21.80
2017-10-18T02:45:54.709Z,22.58
2017-10-18T02:46:28.577Z,22.95
2017-10-18T02:47:02.459Z,21.87
2017-10-18T02:47:36.332Z,23.10
2017-10-18T02:48:10.214Z,22.17
2017-10-18T02:48:44.106Z,21.98
2017-10-18T02:49:17.971Z,22.08
2017-10-18T02:49:51.841Z,22.90
2017-10-18T02:50:25.726Z,22.50
2017-10-18T02:50:59.588Z,22.75
2017-10-18T02:51:33.476Z,22.62
2017-10-18T02:52:07.358Z,22.95
2017-10-18T02:52:41.238Z,23.30
2017-10-18T02:53:15.138Z,21.12
2017-10-18T02:53:49.033Z,20.98
2017-10-18T02:54:22.932Z,21.52
2017-10-18T02:54:56.789Z,22.10
2017-10-18T02:55:30.659Z,23.08
2017-10-18T02:56:04.552Z,22.05
2017-10-18T02:56:38.418Z,22.60
2017-10-18T02:57:12.278Z,23.17
2017-10-18T02:57:46.152Z,23.30
2017-10-18T02:58:20.033Z,22.48
2017-10-18T02:58:53.918Z,24.52
2017-10-18T02:59:27.817Z,23.30
2017-10-18T03:00:01.711Z,22.70
2017-10-18T03:00:35.592Z,22.65
2017-10-18T03:01:09.464Z,22.98
2017-10-18T03:01:43.348Z,23.15
2017-10-18T03:02:17.226Z,23.70
2017-10-18T03:02:51.101Z,23.95
2017-10-18T03:03:25.085Z,23.30
2017-10-18T03:03:58.968Z,24.20
2017-10-18T03:04:32.842Z,24.30
2017-10-18T03:05:06.721Z,24.85
2017-10-18T03:05:40.601Z,23.80
2017-10-18T03:06:14.482Z,24.02
2017-10-18T03:06:48.348Z,23.80
2017-10-18T03:07:22.234Z,23.80
2017-10-18T03:07:56.108Z,23.62
2017-10-18T03:08:29.991Z,23.30
2017-10-18T03:09:03.879Z,22.90
2017-10-18T03:09:37.755Z,22.10
2017-10-18T03:10:11.646Z,23.90
2017-10-18T03:10:45.523Z,22.92
2017-10-18T03:11:19.388Z,23.05
2017-10-18T03:11:53.267Z,23.75
2017-10-18T03:12:27.141Z,23.73
2017-10-18T03:13:01.003Z,23.60
2017-10-18T03:13:34.880Z,24.65
2017-10-18T03:14:08.765Z,23.60
2017-10-18T03:14:42.636Z,24.55
2017-10-18T03:15:16.712Z,24.37
2017-10-18T03:15:50.613Z,24.80
2017-10-18T03:16:24.483Z,23.65
2017-10-18T03:16:58.363Z,24.23
2017-10-18T03:17:32.248Z,23.27
2017-10-18T03:18:06.120Z,24.25
2017-10-18T03:18:39.999Z,23.55
2017-10-18T03:19:13.880Z,23.67
2017-10-18T03:19:47.752Z,25.23
2017-10-18T03:20:21.614Z,24.98
2017-10-18T03:20:55.495Z,23.90
2017-10-18T03:21:29.359Z,23.75
2017-10-18T03:22:03.236Z,23.33
2017-10-18T03:22:37.111Z,22.13
2017-10-18T03:23:10.993Z,22.35
2017-10-18T03:23:44.865Z,23.60
2017-10-18T03:24:18.746Z,20.92
2017-10-18T03:24:52.612Z,22.00
2017-10-18T03:25:26.491Z,22.80
2017-10-18T03:26:00.371Z,22.30
2017-10-18T03:26:34.242Z,21.90
2017-10-18T03:27:08.109Z,22.05
2017-10-18T03:27:41.984Z,20.40
2017-10-18T03:28:15.863Z,20.75
2017-10-18T03:28:49.771Z,22.33
2017-10-18T03:29:23.663Z,22.45
2017-10-18T03:29:57.557Z,22.67
2017-10-18T03:30:31.439Z,23.52
2017-10-18T03:31:05.331Z,22.37
2017-10-18T03:31:39.191Z,22.35
2017-10-18T03:32:13.095Z,22.85
2017-10-18T03:32:46.976Z,21.80
2017-10-18T03:33:20.864Z,22.27
2017-10-18T03:33:54.769Z,23.30
2017-10-18T03:34:28.686Z,24.15
2017-10-18T03:35:02.661Z,23.38
2017-10-18T03:35:36.527Z,22.90
2017-10-18T03:36:10.445Z,21.92
2017-10-18T03:36:44.325Z,22.83
2017-10-18T03:37:18.207Z,23.83
2017-10-18T03:37:52.080Z,21.58
2017-10-18T03:38:25.964Z,22.87
2017-10-18T03:39:00.036Z,22.75
2017-10-18T03:39:33.913Z,21.65
2017-10-18T03:40:07.844Z,23.20
2017-10-18T03:40:41.716Z,23.83
2017-10-18T03:41:15.608Z,23.45
2017-10-18T03:41:49.506Z,23.02
2017-10-18T03:42:23.474Z,22.73
2017-10-18T03:42:57.355Z,24.17
2017-10-18T03:43:31.225Z,22.65
2017-10-18T03:44:05.090Z,23.23
2017-10-18T03:44:38.973Z,24.02
2017-10-18T03:45:12.857Z,24.17
2017-10-18T03:45:46.748Z,24.17
2017-10-18T03:46:20.613Z,22.83
2017-10-18T03:46:54.486Z,22.52
2017-10-18T03:47:28.395Z,21.80
2017-10-18T03:48:02.284Z,22.17
2017-10-18T03:48:36.234Z,22.08
2017-10-18T03:49:10.127Z,22.75
2017-10-18T03:49:44.005Z,23.02
2017-10-18T03:50:17.883Z,22.48
2017-10-18T03:50:51.743Z,21.10
2017-10-18T03:51:25.605Z,21.60
2017-10-18T03:51:59.489Z,22.67
2017-10-18T03:52:33.372Z,22.58
2017-10-18T03:53:07.235Z,22.67
2017-10-18T03:53:41.120Z,21.92
2017-10-18T03:54:20.788Z,23.35
2017-10-18T03:54:54.673Z,21.62
2017-10-18T03:55:28.551Z,19.87
2017-10-18T03:56:02.421Z,22.75
2017-10-18T03:56:36.329Z,21.92
2017-10-18T03:57:10.193Z,23.52
2017-10-18T03:57:44.070Z,23.27
2017-10-18T03:58:17.957Z,22.25
2017-10-18T03:58:51.838Z,24.20
2017-10-18T03:59:25.705Z,21.17
2017-10-18T03:59:59.595Z,23.05
2017-10-18T04:00:33.476Z,22.62
2017-10-18T04:01:07.356Z,21.67
2017-10-18T04:01:41.225Z,23.08
2017-10-18T04:02:15.096Z,21.52
2017-10-18T04:02:49.164Z,22.67
2017-10-18T04:03:23.030Z,22.33
2017-10-18T04:03:56.910Z,22.25
2017-10-18T04:04:30.803Z,22.20
2017-10-18T04:05:04.727Z,22.83
2017-10-18T04:05:38.600Z,22.73
2017-10-18T04:06:12.499Z,20.25
2017-10-18T04:06:46.392Z,22.15
2017-10-18T04:07:20.275Z,22.92
2017-10-18T04:07:54.143Z,22.80
2017-10-18T04:08:28.015Z,22.52
2017-10-18T04:09:01.880Z,23.48
2017-10-18T04:09:35.748Z,22.50
2017-10-18T04:10:09.650Z,21.37
2017-10-18T04:10:43.520Z,22.45
2017-10-18T04:11:17.384Z,23.70
2017-10-18T04:11:51.249Z,23.00
2017-10-18T04:12:25.181Z,22.33
2017-10-18T04:12:59.051Z,22.77
2017-10-18T04:13:32.924Z,21.90
2017-10-18T04:14:06.809Z,22.67
2017-10-18T04:14:40.680Z,21.62
2017-10-18T04:15:14.567Z,22.37
2017-10-18T04:15:48.444Z,22.58
2017-10-18T04:16:22.327Z,22.70
2017-10-18T04:16:56.219Z,23.95
2017-10-18T04:17:30.117Z,21.58
2017-10-18T04:18:03.988Z,21.90
2017-10-18T04:18:37.843Z,23.30
2017-10-18T04:19:11.720Z,22.50
2017-10-18T04:19:45.597Z,22.75
2017-10-18T04:20:19.493Z,21.08
2017-10-18T04:20:53.372Z,21.37
2017-10-18T04:21:27.296Z,22.20
2017-10-18T04:22:01.207Z,21.37
2017-10-18T04:22:35.350Z,20.52
2017-10-18T04:23:09.232Z,20.90
2017-10-18T04:23:43.130Z,21.85
2017-10-18T04:24:16.999Z,21.27
2017-10-18T04:24:50.870Z,20.35
2017-10-18T04:25:24.750Z,20.98
2017-10-18T04:25:58.636Z,21.00
2017-10-18T04:26:32.505Z,21.23
2017-10-18T04:27:06.429Z,24.08
2017-10-18T04:27:40.309Z,23.08
2017-10-18T04:28:14.180Z,21.98
2017-10-18T04:28:48.057Z,20.77
2017-10-18T04:29:21.920Z,23.12
2017-10-18T04:29:55.801Z,23.05
2017-10-18T04:30:29.695Z,22.10
2017-10-18T04:31:03.581Z,22.15
2017-10-18T04:31:37.460Z,23.27
2017-10-18T04:32:11.350Z,23.65
2017-10-18T04:32:45.226Z,21.95
2017-10-18T04:33:19.093Z,23.00
2017-10-18T04:33:52.960Z,22.90
2017-10-18T04:34:26.826Z,21.60
2017-10-18T04:35:00.680Z,22.40
2017-10-18T04:35:34.559Z,21.77
2017-10-18T04:36:08.425Z,21.87
2017-10-18T04:36:42.317Z,22.85
2017-10-18T04:37:16.233Z,20.73
2017-10-18T04:37:50.121Z,20.92
2017-10-18T04:38:24.008Z,21.62
2017-10-18T04:38:57.921Z,22.25
2017-10-18T04:39:31.792Z,22.80
2017-10-18T04:40:05.708Z,23.58
2017-10-18T04:40:39.612Z,22.05
2017-10-18T04:41:13.493Z,22.35
2017-10-18T04:41:47.370Z,22.48
2017-10-18T04:42:21.256Z,22.48
2017-10-18T04:42:55.153Z,22.35
2017-10-18T04:43:29.025Z,21.95
2017-10-18T04:44:02.902Z,21.87
2017-10-18T04:44:36.773Z,22.60
2017-10-18T04:45:10.657Z,22.35
2017-10-18T04:45:44.551Z,20.50
2017-10-18T04:46:18.436Z,22.70
2017-10-18T04:46:52.327Z,21.37
2017-10-18T04:47:26.192Z,22.20
2017-10-18T04:48:00.120Z,22.37
2017-10-18T04:48:34.001Z,22.85
2017-10-18T04:49:07.885Z,22.02
2017-10-18T04:49:41.763Z,23.00
2017-10-18T04:50:15.645Z,22.70
2017-10-18T04:50:49.522Z,23.27
2017-10-18T04:51:23.409Z,22.92
2017-10-18T04:51:57.272Z,20.88
2017-10-18T04:52:31.134Z,22.70
2017-10-18T04:53:04.994Z,21.30
2017-10-18T04:53:38.862Z,22.52
2017-10-18T04:54:12.742Z,22.02
2017-10-18T04:54:46.627Z,21.65
2017-10-18T04:55:20.497Z,23.40
2017-10-18T04:55:54.389Z,23.45
2017-10-18T04:56:28.255Z,25.85
2017-10-18T04:57:02.129Z,24.15
2017-10-18T04:57:35.994Z,24.55
2017-10-18T04:58:09.870Z,24.02
2017-10-18T04:58:43.740Z,23.80
2017-10-18T04:59:17.617Z,24.15
2017-10-18T04:59:51.508Z,22.58
2017-10-18T05:00:25.379Z,22.98
2017-10-18T05:00:59.270Z,23.33
2017-10-18T05:01:33.151Z,21.25
2017-10-18T05:02:07.022Z,23.42
2017-10-18T05:02:40.889Z,22.17
2017-10-18T05:03:14.766Z,24.60
2017-10-18T05:03:48.624Z,24.40
2017-10-18T05:04:22.494Z,23.23
2017-10-18T05:04:56.372Z,23.83
2017-10-18T05:05:30.250Z,23.10
2017-10-18T05:06:04.190Z,25.10
2017-10-18T05:06:38.914Z,22.75
2017-10-18T05:07:12.803Z,23.48
2017-10-18T05:07:46.682Z,24.35
2017-10-18T05:08:20.557Z,23.73
2017-10-18T05:08:54.438Z,24.60
2017-10-18T05:09:28.302Z,24.83
2017-10-18T05:10:02.167Z,24.80
2017-10-18T05:10:36.043Z,24.35
2017-10-18T05:11:09.940Z,24.55
2017-10-18T05:11:43.808Z,22.60
2017-10-18T05:12:17.718Z,22.70
2017-10-18T05:12:51.667Z,25.27
2017-10-18T05:13:25.550Z,24.17
2017-10-18T05:13:59.434Z,23.10
2017-10-18T05:14:33.322Z,25.30
2017-10-18T05:15:07.243Z,24.77
2017-10-18T05:15:41.134Z,23.45
2017-10-18T05:16:15.025Z,23.05
2017-10-18T05:16:48.893Z,23.83
2017-10-18T05:17:22.821Z,25.70
2017-10-18T05:17:56.714Z,25.50
2017-10-18T05:18:30.587Z,23.35
2017-10-18T05:19:04.508Z,24.48
2017-10-18T05:19:38.491Z,23.17
2017-10-18T05:20:12.392Z,24.20
2017-10-18T05:20:46.263Z,24.63
2017-10-18T05:21:20.164Z,22.70
2017-10-18T05:21:54.029Z,24.05
2017-10-18T05:22:27.921Z,23.70
2017-10-18T05:23:01.823Z,23.10
2017-10-18T05:23:35.720Z,26.05
2017-10-18T05:24:09.609Z,24.12
2017-10-18T05:24:43.480Z,24.52
2017-10-18T05:25:17.363Z,24.52
2017-10-18T05:25:51.241Z,23.15
2017-10-18T05:26:25.121Z,24.10
2017-10-18T05:26:58.998Z,25.83
2017-10-18T05:27:32.864Z,23.65
2017-10-18T05:28:06.758Z,23.60
2017-10-18T05:28:40.623Z,23.52
2017-10-18T05:29:14.510Z,24.33
2017-10-18T05:29:48.375Z,24.05
2017-10-18T05:30:22.284Z,23.38
2017-10-18T05:30:56.155Z,22.98
2017-10-18T05:31:30.026Z,22.70
2017-10-18T05:32:03.904Z,23.83
2017-10-18T05:32:37.760Z,24.20
2017-10-18T05:33:11.685Z,25.05
2017-10-18T05:33:45.576Z,24.05
2017-10-18T05:34:19.499Z,24.52
2017-10-18T05:34:53.404Z,25.12
2017-10-18T05:35:27.295Z,25.85
2017-10-18T05:36:01.299Z,24.37
2017-10-18T05:36:35.191Z,25.70
2017-10-18T05:37:09.072Z,25.12
2017-10-18T05:37:42.984Z,25.12
2017-10-18T05:38:16.882Z,23.83
2017-10-18T05:38:50.771Z,25.42
2017-10-18T05:39:24.667Z,24.33
2017-10-18T05:39:58.667Z,28.23
2017-10-18T05:40:32.599Z,27.50
2017-10-18T05:41:06.655Z,28.15
2017-10-18T05:41:40.566Z,28.05
2017-10-18T05:42:14.476Z,28.40
2017-10-18T05:42:48.360Z,28.62
2017-10-18T05:43:22.215Z,28.92
2017-10-18T05:43:56.161Z,30.73
2017-10-18T05:44:30.039Z,30.02
2017-10-18T05:45:04.137Z,29.45
2017-10-18T05:45:38.025Z,29.83
2017-10-18T05:46:11.888Z,33.72
2017-10-18T05:46:45.789Z,31.45
2017-10-18T05:47:19.703Z,30.90
2017-10-18T05:47:53.629Z,31.73
2017-10-18T05:48:27.840Z,33.70
2017-10-18T05:49:01.721Z,34.45
2017-10-18T05:49:35.584Z,35.83
2017-10-18T05:50:09.460Z,34.75
2017-10-18T05:50:43.334Z,36.88
2017-10-18T05:51:17.205Z,35.63
2017-10-18T05:51:51.133Z,35.63
2017-10-18T05:52:25.000Z,36.60
2017-10-18T05:52:58.902Z,35.63
2017-10-18T05:53:32.785Z,34.63
2017-10-18T05:54:06.657Z,35.47
2017-10-18T05:54:40.591Z,35.05
2017-10-18T05:55:14.488Z,35.50
2017-10-18T05:55:48.365Z,34.83
2017-10-18T05:56:22.237Z,37.45
2017-10-18T05:56:56.155Z,34.35
2017-10-18T05:57:30.031Z,37.20
2017-10-18T05:58:03.923Z,36.05
2017-10-18T05:58:38.072Z,36.22
2017-10-18T05:59:11.948Z,35.17
2017-10-18T05:59:45.813Z,34.25
2017-10-18T06:00:19.698Z,36.70
2017-10-18T06:00:53.585Z,34.35
2017-10-18T06:01:27.464Z,36.05
2017-10-18T06:02:01.458Z,37.65
2017-10-18T06:02:35.410Z,37.70
2017-10-18T06:03:09.465Z,36.60
2017-10-18T06:03:43.354Z,37.78
2017-10-18T06:04:17.399Z,38.63
2017-10-18T06:04:51.267Z,37.38
2017-10-18T06:05:25.141Z,37.83
2017-10-18T06:05:59.028Z,38.28
2017-10-18T06:06:32.896Z,36.00
2017-10-18T06:07:06.777Z,36.83
2017-10-18T06:07:40.731Z,37.58
2017-10-18T06:08:14.620Z,36.22
2017-10-18T06:08:48.489Z,36.08
2017-10-18T06:09:22.386Z,36.10
2017-10-18T06:09:56.267Z,37.05
2017-10-18T06:10:30.165Z,35.83
2017-10-18T06:11:04.028Z,35.38
2017-10-18T06:11:37.904Z,34.55
2017-10-18T06:12:11.856Z,34.85
2017-10-18T06:12:45.753Z,35.95
2017-10-18T06:13:19.635Z,35.95
2017-10-18T06:13:53.514Z,38.28
2017-10-18T06:14:27.381Z,39.58
2017-10-18T06:15:01.263Z,41.45
2017-10-18T06:15:35.135Z,40.42
2017-10-18T06:16:09.008Z,37.97
2017-10-18T06:16:42.873Z,39.55
2017-10-18T06:17:17.690Z,40.25
2017-10-18T06:17:51.559Z,38.35
2017-10-18T06:18:25.430Z,39.53
2017-10-18T06:18:59.322Z,40.38
2017-10-18T06:19:33.197Z,37.78
2017-10-18T06:20:07.070Z,38.00
2017-10-18T06:20:40.970Z,37.15
2017-10-18T06:21:14.874Z,38.17
2017-10-18T06:21:48.748Z,38.65
2017-10-18T06:22:22.645Z,36.30
2017-10-18T06:22:56.816Z,37.53
2017-10-18T06:23:30.687Z,36.80
2017-10-18T06:24:04.568Z,35.33
2017-10-18T06:24:38.435Z,35.53
2017-10-18T06:25:12.507Z,35.03
2017-10-18T06:25:46.371Z,32.65
2017-10-18T06:26:20.238Z,34.88
2017-10-18T06:26:54.174Z,36.20
2017-10-18T06:27:28.071Z,34.75
2017-10-18T06:28:01.940Z,33.75
2017-10-18T06:28:35.831Z,34.40
2017-10-18T06:29:09.709Z,32.53
2017-10-18T06:29:43.866Z,33.10
2017-10-18T06:30:17.777Z,34.97
2017-10-18T06:30:51.639Z,30.83
2017-10-18T06:31:25.511Z,32.83
2017-10-18T06:31:59.653Z,32.70
2017-10-18T06:32:33.563Z,38.00
2017-10-18T06:33:07.435Z,35.53
2017-10-18T06:33:41.319Z,33.72
2017-10-18T06:34:15.180Z,35.53
2017-10-18T06:34:49.041Z,33.53
2017-10-18T06:35:22.910Z,34.33
2017-10-18T06:35:56.816Z,32.83
2017-10-18T06:36:30.700Z,32.15
2017-10-18T06:37:04.614Z,33.42
2017-10-18T06:37:38.540Z,35.05
2017-10-18T06:38:12.414Z,33.22
2017-10-18T06:38:46.336Z,34.45
2017-10-18T06:39:20.253Z,33.30
2017-10-18T06:39:54.267Z,32.47
2017-10-18T06:40:28.174Z,32.60
2017-10-18T06:41:02.100Z,33.25
2017-10-18T06:41:36.185Z,31.70
2017-10-18T06:42:10.085Z,30.02
2017-10-18T06:42:43.989Z,27.98
2017-10-18T06:43:17.906Z,28.98
2017-10-18T06:43:51.801Z,26.60
2017-10-18T06:44:25.676Z,26.52
2017-10-18T06:44:59.546Z,28.38
2017-10-18T06:45:33.431Z,29.48
2017-10-18T06:46:07.303Z,27.73
2017-10-18T06:46:41.250Z,26.37
2017-10-18T06:47:15.141Z,25.50
2017-10-18T06:47:49.058Z,26.12
2017-10-18T06:48:22.959Z,26.67
2017-10-18T06:48:56.831Z,24.45
2017-10-18T06:49:30.794Z,27.67
2017-10-18T06:50:04.668Z,25.37
2017-10-18T06:50:38.533Z,24.83
2017-10-18T06:51:12.391Z,27.30
2017-10-18T06:51:46.271Z,25.00
2017-10-18T06:52:20.144Z,24.25
2017-10-18T06:52:54.043Z,25.52
2017-10-18T06:53:27.924Z,25.12
2017-10-18T06:54:01.794Z,26.80
2017-10-18T06:54:35.677Z,24.20
2017-10-18T06:55:09.555Z,24.00
2017-10-18T06:55:43.441Z,25.77
2017-10-18T06:56:17.311Z,24.42
2017-10-18T06:56:51.223Z,28.95
2017-10-18T06:57:25.135Z,28.33
2017-10-18T06:57:59.016Z,23.90
2017-10-18T06:58:32.923Z,26.98
2017-10-18T06:59:06.859Z,25.65
2017-10-18T06:59:40.747Z,24.58
2017-10-18T07:00:16.688Z,24.45
2017-10-18T07:00:50.568Z,25.15
2017-10-18T07:01:24.432Z,26.35
2017-10-18T07:01:58.300Z,24.45
2017-10-18T07:02:32.172Z,25.35
2017-10-18T07:03:06.048Z,25.42
2017-10-18T07:03:39.928Z,25.12
2017-10-18T07:04:13.843Z,25.80
2017-10-18T07:04:47.715Z,25.80
2017-10-18T07:05:21.584Z,25.37
2017-10-18T07:05:55.487Z,26.73
2017-10-18T07:06:29.362Z,26.12
2017-10-18T07:07:03.221Z,25.90
2017-10-18T07:07:37.105Z,26.77
2017-10-18T07:08:10.995Z,26.15
2017-10-18T07:08:44.860Z,26.75
2017-10-18T07:09:18.714Z,26.45
2017-10-18T07:09:52.594Z,26.17
2017-10-18T07:10:26.470Z,25.77
2017-10-18T07:11:00.367Z,28.05
2017-10-18T07:11:34.249Z,27.80
2017-10-18T07:12:08.131Z,26.87
2017-10-18T07:12:42.016Z,28.42
2017-10-18T07:13:15.910Z,26.67
2017-10-18T07:13:49.774Z,26.10
2017-10-18T07:14:23.647Z,25.73
2017-10-18T07:14:57.531Z,26.75
2017-10-18T07:15:31.439Z,26.50
2017-10-18T07:16:05.315Z,25.83
2017-10-18T07:16:39.186Z,25.88